Bei Facebook empfehlenBei Twitter postenGoogle plusPinterest

Das Wetter im Erzgebirge am 10.05.2015

Wetter und Klima am 10.05.2015 Holzhau im Erzgebirge (630m ü.NN)
Letzte gemessene Temperatur und Uhrzeit der Messung23:45:00 Uhr2.70 °C
Temperatur (Maximum / Höchstwert) und Uhrzeit der Messung15:30:00 Uhr15.70 °C
Temperatur (Minimum / Tiefstwert) und Uhrzeit der Messung23:30:002.60 °C
Errechneter Absolutwert der Temperaturschwankungen zwischen Tmin und Tmax des Tages13.10 K
Errechnete Tagesmitteltemperatur10.18125 °C
Gesamt - Niederschlag des Tages (in flüssiger Form)0.00 Liter / m²
Luftdruck (Maximum / Höchstwert) und Zeitpunkt der Messung23:30:00 Uhr1025.80 hPa
Luftdruck (Minimum / Tiefstwert) und Zeitpunkt der Messung00:00:00 Uhr1018.10 hPa
Errechneter Absolutwert der Luftdruckschwankungen des Tages7.70 hPa
Höchste gemessene Windgeschwindigkeit und Uhrzeit der Messung15:15:00 Uhr14.76 km/h
Errechnete Windhäufigkeit in Relation zu den Messwerten des Tages21.87500 %
Niedrigste Windkühle (Windchill) und Zeitpunkt der Messung23:30:00 Uhr2.60 °C
Taupunkt (Maximum / Höchstwert) und Uhrzeit der Messung11:45:00 Uhr8.20 °C
Taupunkt (Minimum / Tiefstwert) und Uhrzeit der Messung23:30:000.30 °C
Anzahl der automatisch eingelesenen Messwerte 96

Detaillierte Wetter- und Klima- Messwerte für den 10.05.2015 in Holzhau im Erzgebirge (630m ü.NN)
ZeitTemperaturLuftdruckRel. LuftfeuchteWindWindrichtungWindchillTaupunktNiederschlag l/m²
23:45:002.70 °C1025.60 hPa86.00 %0.60 °C 
23:30:002.60 °C1025.80 hPa85.00 %0.30 °C 
23:15:002.90 °C1025.80 hPa84.00 %0.50 °C 
23:00:003.10 °C1025.70 hPa84.00 %0.70 °C 
22:45:003.40 °C1025.60 hPa83.00 %0.80 °C 
22:30:003.80 °C1025.40 hPa82.00 %1.00 °C 
22:15:004.20 °C1025.30 hPa81.00 %1.20 °C 
22:00:004.90 °C1025.30 hPa79.00 %1.60 °C 
21:45:005.50 °C1025.00 hPa78.00 %2.00 °C 
21:30:006.10 °C1024.90 hPa76.00 %2.20 °C 
21:15:007.00 °C1024.80 hPa74.00 %2.70 °C 
21:00:007.90 °C1024.70 hPa71.00 %3.00 °C 
20:45:008.80 °C1024.30 hPa70.00 %3.60 °C 
20:30:009.60 °C1024.10 hPa68.00 %4.00 °C 
20:15:0010.50 °C1024.10 hPa66.00 %4.40 °C 
20:00:0011.40 °C1024.00 hPa65.00 %5.10 °C 
19:45:0012.10 °C1023.90 hPa63.00 %5.30 °C 
19:30:0012.80 °C1023.80 hPa60.00 %5.20 °C 
19:15:0013.50 °C1023.50 hPa56.00 %4.90 °C 
19:00:0013.60 °C1023.40 hPa52.00 %3.90 °C 
18:45:0013.80 °C1023.30 hPa52.00 %13.68 km/hWNW12.70 °C4.10 °C 
18:30:0013.80 °C1023.00 hPa51.00 %3.90 °C 
18:15:0013.90 °C1023.10 hPa50.00 %3.60 km/hNNW13.90 °C3.70 °C 
18:00:0014.30 °C1022.90 hPa48.00 %3.50 °C 
17:45:0014.50 °C1022.80 hPa48.00 %3.60 °C 
17:30:0014.60 °C1023.10 hPa49.00 %4.00 °C 
17:15:0014.40 °C1022.80 hPa49.00 %3.60 km/hN14.40 °C3.80 °C 
17:00:0014.80 °C1022.60 hPa53.00 %8.64 km/hWNW14.50 °C5.30 °C 
16:45:0014.60 °C1022.60 hPa52.00 %5.40 km/hWNW14.90 °C4.90 °C 
16:30:0014.50 °C1022.50 hPa53.00 %5.00 °C 
16:15:0015.30 °C1022.50 hPa53.00 %5.80 °C 
16:00:0015.20 °C1022.40 hPa52.00 %4.32 km/hNNW15.20 °C5.40 °C 
15:45:0014.90 °C1022.40 hPa55.00 %6.00 °C 
15:30:0015.70 °C1022.30 hPa53.00 %6.12 km/hNW16.00 °C6.20 °C 
15:15:0015.10 °C1022.40 hPa58.00 %14.76 km/hWNW14.20 °C6.90 °C 
15:00:0015.10 °C1022.50 hPa56.00 %9.36 km/hNW14.80 °C6.40 °C 
14:45:0015.00 °C1022.40 hPa57.00 %6.60 °C 
14:30:0015.10 °C1022.30 hPa53.00 %5.40 km/hNW15.50 °C5.60 °C 
14:15:0014.70 °C1022.30 hPa56.00 %6.00 °C 
14:00:0014.90 °C1022.10 hPa56.00 %6.84 km/hWNW15.00 °C6.20 °C 
13:45:0014.50 °C1022.40 hPa56.00 %10.44 km/hWSW14.00 °C5.80 °C 
13:30:0014.20 °C1022.30 hPa59.00 %6.30 °C 
13:15:0013.60 °C1021.90 hPa61.00 %6.20 °C 
13:00:0014.10 °C1022.00 hPa64.00 %7.40 °C 
12:45:0013.90 °C1021.80 hPa64.00 %11.16 km/hWNW13.10 °C7.20 °C 
12:30:0013.60 °C1021.80 hPa65.00 %7.20 °C 
12:15:0013.40 °C1021.70 hPa66.00 %7.20 °C 
12:00:0012.90 °C1021.80 hPa69.00 %5.76 km/hWNW12.90 °C7.40 °C 
11:45:0013.10 °C1021.70 hPa72.00 %8.20 °C 
11:30:0012.40 °C1021.60 hPa71.00 %7.30 °C 
11:15:0012.20 °C1021.50 hPa71.00 %7.10 °C 
11:00:0011.80 °C1021.20 hPa73.00 %7.20 km/hW11.30 °C7.10 °C 
10:45:0011.60 °C1021.00 hPa75.00 %7.30 °C 
10:30:0011.10 °C1021.00 hPa76.00 %7.00 °C 
10:15:0010.60 °C1020.70 hPa79.00 %3.96 km/hWNW10.60 °C7.10 °C 
10:00:0010.30 °C1021.00 hPa80.00 %7.00 °C 
09:45:0010.30 °C1020.80 hPa80.00 %7.56 km/hWNW9.50 °C7.00 °C 
09:30:0010.30 °C1020.80 hPa80.00 %6.12 km/hWNW9.80 °C7.00 °C 
09:15:0010.40 °C1020.60 hPa81.00 %7.30 °C 
09:00:009.90 °C1020.50 hPa83.00 %7.20 km/hNNW9.10 °C7.20 °C 
08:45:009.90 °C1020.20 hPa85.00 %10.80 km/hNW8.40 °C7.50 °C 
08:30:009.50 °C1020.20 hPa87.00 %7.40 °C 
08:15:009.50 °C1020.10 hPa87.00 %7.40 °C 
08:00:009.40 °C1020.10 hPa89.00 %7.70 °C 
07:45:009.10 °C1020.00 hPa90.00 %7.50 °C 
07:30:008.80 °C1020.20 hPa91.00 %7.40 °C 
07:15:008.70 °C1019.90 hPa91.00 %7.30 °C 
07:00:008.30 °C1019.90 hPa92.00 %7.10 °C 
06:45:007.90 °C1019.80 hPa92.00 %6.70 °C 
06:30:007.50 °C1019.70 hPa92.00 %6.30 °C 
06:15:007.40 °C1019.60 hPa92.00 %6.20 °C 
06:00:007.50 °C1019.70 hPa92.00 %6.48 km/hNW6.50 °C6.30 °C 
05:45:007.40 °C1019.70 hPa92.00 %6.20 °C 
05:30:007.40 °C1019.40 hPa92.00 %6.20 °C 
05:15:007.60 °C1019.20 hPa92.00 %6.40 °C 
05:00:007.40 °C1019.10 hPa92.00 %6.20 °C 
04:45:007.00 °C1019.20 hPa92.00 %5.80 °C 
04:30:006.40 °C1019.20 hPa92.00 %5.20 °C 
04:15:006.30 °C1019.30 hPa91.00 %4.90 °C 
04:00:006.60 °C1019.20 hPa91.00 %5.20 °C 
03:45:007.10 °C1019.30 hPa91.00 %5.70 °C 
03:30:007.30 °C1019.00 hPa91.00 %5.90 °C 
03:15:007.40 °C1018.80 hPa91.00 %6.00 °C 
03:00:007.30 °C1018.90 hPa91.00 %5.90 °C 
02:45:007.40 °C1018.80 hPa91.00 %6.00 °C 
02:30:007.50 °C1018.70 hPa91.00 %6.10 °C 
02:15:008.10 °C1018.70 hPa91.00 %6.70 °C 
02:00:008.60 °C1018.60 hPa91.00 %7.20 °C 
01:45:008.90 °C1018.60 hPa91.00 %7.50 °C 
01:30:009.00 °C1018.60 hPa92.00 %7.80 °C 
01:15:009.10 °C1018.60 hPa92.00 %7.90 °C 
01:00:009.10 °C1018.40 hPa92.00 %7.90 °C 
00:45:009.10 °C1018.70 hPa91.00 %7.70 °C 
00:30:009.10 °C1018.60 hPa91.00 %7.70 °C 
00:15:009.10 °C1018.30 hPa91.00 %7.70 °C 
00:00:008.90 °C1018.10 hPa91.00 %7.50 °C 

Permanenter Link zu dieser Seite: Wetter im Erzgebirge am 10.05.2015
Performance-Info: Die Erstellung der Seite / Statistik(en) / Tabelle(n) erforderte 5 Datenbankserver-Abfrage(n) und dauerte 103 Millisekunden. (Dieser Messwert ist von der Gesamt-Auslastung des Servers abhängig.)
Erzgebirge - Wetter | Erzgebirge - Wetter (Mobilgeräte) | Komplette Klimadatenbank